sensor_id;sensor_type;location;lat;lon;timestamp;temperature;humidity
18177;DHT22;9213;50.858;3.964;2022-07-29T00:01:49;23.50;36.50
18177;DHT22;9213;50.858;3.964;2022-07-29T00:04:17;23.50;36.50
18177;DHT22;9213;50.858;3.964;2022-07-29T00:06:44;23.50;36.60
18177;DHT22;9213;50.858;3.964;2022-07-29T00:09:11;23.50;36.50
18177;DHT22;9213;50.858;3.964;2022-07-29T00:11:38;23.40;36.50
18177;DHT22;9213;50.858;3.964;2022-07-29T00:14:05;23.40;36.50
18177;DHT22;9213;50.858;3.964;2022-07-29T00:16:34;23.40;36.60
18177;DHT22;9213;50.858;3.964;2022-07-29T00:19:01;23.40;36.80
18177;DHT22;9213;50.858;3.964;2022-07-29T00:21:28;23.30;36.90
18177;DHT22;9213;50.858;3.964;2022-07-29T00:23:55;23.30;36.90
18177;DHT22;9213;50.858;3.964;2022-07-29T00:26:22;23.30;37.00
18177;DHT22;9213;50.858;3.964;2022-07-29T00:28:49;23.30;37.00
18177;DHT22;9213;50.858;3.964;2022-07-29T00:31:16;23.30;37.00
18177;DHT22;9213;50.858;3.964;2022-07-29T00:33:44;23.30;37.00
18177;DHT22;9213;50.858;3.964;2022-07-29T00:36:11;23.30;37.00
18177;DHT22;9213;50.858;3.964;2022-07-29T00:38:37;23.30;37.60
18177;DHT22;9213;50.858;3.964;2022-07-29T00:41:04;23.20;37.10
18177;DHT22;9213;50.858;3.964;2022-07-29T00:43:31;23.20;37.20
18177;DHT22;9213;50.858;3.964;2022-07-29T00:45:58;23.20;37.30
18177;DHT22;9213;50.858;3.964;2022-07-29T00:48:25;23.10;37.40
18177;DHT22;9213;50.858;3.964;2022-07-29T00:50:53;23.10;37.40
18177;DHT22;9213;50.858;3.964;2022-07-29T00:53:21;23.00;37.40
18177;DHT22;9213;50.858;3.964;2022-07-29T00:55:48;23.00;37.60
18177;DHT22;9213;50.858;3.964;2022-07-29T00:58:15;22.90;37.70
18177;DHT22;9213;50.858;3.964;2022-07-29T01:00:42;22.90;37.80
18177;DHT22;9213;50.858;3.964;2022-07-29T01:03:09;22.90;38.00
18177;DHT22;9213;50.858;3.964;2022-07-29T01:05:36;22.80;38.20
18177;DHT22;9213;50.858;3.964;2022-07-29T01:08:05;22.80;38.30
18177;DHT22;9213;50.858;3.964;2022-07-29T01:10:33;22.70;38.50
18177;DHT22;9213;50.858;3.964;2022-07-29T01:13:04;22.60;38.60
18177;DHT22;9213;50.858;3.964;2022-07-29T01:15:32;22.60;38.80
18177;DHT22;9213;50.858;3.964;2022-07-29T01:18:03;22.50;39.10
18177;DHT22;9213;50.858;3.964;2022-07-29T01:20:45;22.40;39.10
18177;DHT22;9213;50.858;3.964;2022-07-29T01:23:44;22.40;39.30
18177;DHT22;9213;50.858;3.964;2022-07-29T01:26:28;22.40;39.20
18177;DHT22;9213;50.858;3.964;2022-07-29T01:29:11;22.30;39.30
18177;DHT22;9213;50.858;3.964;2022-07-29T01:31:43;22.20;39.30
18177;DHT22;9213;50.858;3.964;2022-07-29T01:34:16;22.10;39.50
18177;DHT22;9213;50.858;3.964;2022-07-29T01:36:48;22.10;39.60
18177;DHT22;9213;50.858;3.964;2022-07-29T01:39:19;22.10;39.60
18177;DHT22;9213;50.858;3.964;2022-07-29T01:41:55;22.00;39.70
18177;DHT22;9213;50.858;3.964;2022-07-29T01:44:31;22.00;39.70
18177;DHT22;9213;50.858;3.964;2022-07-29T01:47:03;22.00;39.80
18177;DHT22;9213;50.858;3.964;2022-07-29T01:49:35;22.00;39.90
18177;DHT22;9213;50.858;3.964;2022-07-29T01:52:07;22.00;39.90
18177;DHT22;9213;50.858;3.964;2022-07-29T01:54:38;21.90;40.00
18177;DHT22;9213;50.858;3.964;2022-07-29T01:57:10;21.90;40.00
18177;DHT22;9213;50.858;3.964;2022-07-29T01:59:40;21.90;40.10
18177;DHT22;9213;50.858;3.964;2022-07-29T02:02:09;21.80;40.00
18177;DHT22;9213;50.858;3.964;2022-07-29T02:04:39;21.80;40.10
18177;DHT22;9213;50.858;3.964;2022-07-29T02:07:09;21.80;40.20
18177;DHT22;9213;50.858;3.964;2022-07-29T02:09:38;21.80;40.20
18177;DHT22;9213;50.858;3.964;2022-07-29T02:12:07;21.80;40.40
18177;DHT22;9213;50.858;3.964;2022-07-29T02:14:39;21.70;40.50
18177;DHT22;9213;50.858;3.964;2022-07-29T02:17:07;21.70;40.60
18177;DHT22;9213;50.858;3.964;2022-07-29T02:19:37;21.60;40.60
18177;DHT22;9213;50.858;3.964;2022-07-29T02:22:06;21.60;40.80
18177;DHT22;9213;50.858;3.964;2022-07-29T02:24:34;21.60;40.80
18177;DHT22;9213;50.858;3.964;2022-07-29T02:27:04;21.60;41.10
18177;DHT22;9213;50.858;3.964;2022-07-29T02:29:31;21.50;41.00
18177;DHT22;9213;50.858;3.964;2022-07-29T02:32:01;21.50;41.10
18177;DHT22;9213;50.858;3.964;2022-07-29T02:34:30;21.50;41.10
18177;DHT22;9213;50.858;3.964;2022-07-29T02:36:57;21.40;41.00
18177;DHT22;9213;50.858;3.964;2022-07-29T02:39:25;21.40;41.10
18177;DHT22;9213;50.858;3.964;2022-07-29T02:41:57;21.40;41.10
18177;DHT22;9213;50.858;3.964;2022-07-29T02:44:26;21.40;41.20
18177;DHT22;9213;50.858;3.964;2022-07-29T02:46:59;21.30;41.30
18177;DHT22;9213;50.858;3.964;2022-07-29T02:49:35;21.30;41.40
18177;DHT22;9213;50.858;3.964;2022-07-29T02:52:05;21.30;41.50
18177;DHT22;9213;50.858;3.964;2022-07-29T02:54:44;21.30;41.50
18177;DHT22;9213;50.858;3.964;2022-07-29T02:57:19;21.30;41.70
18177;DHT22;9213;50.858;3.964;2022-07-29T02:59:48;21.20;41.60
18177;DHT22;9213;50.858;3.964;2022-07-29T03:02:16;21.20;41.80
18177;DHT22;9213;50.858;3.964;2022-07-29T03:04:46;21.20;41.70
18177;DHT22;9213;50.858;3.964;2022-07-29T03:07:15;21.20;41.90
18177;DHT22;9213;50.858;3.964;2022-07-29T03:09:45;21.10;42.10
18177;DHT22;9213;50.858;3.964;2022-07-29T03:12:14;21.00;42.00
18177;DHT22;9213;50.858;3.964;2022-07-29T03:14:41;21.10;42.20
18177;DHT22;9213;50.858;3.964;2022-07-29T03:17:09;21.00;42.20
18177;DHT22;9213;50.858;3.964;2022-07-29T03:19:37;21.00;42.40
18177;DHT22;9213;50.858;3.964;2022-07-29T03:22:05;20.90;42.50
18177;DHT22;9213;50.858;3.964;2022-07-29T03:24:35;20.90;42.60
18177;DHT22;9213;50.858;3.964;2022-07-29T03:27:03;20.90;42.70
18177;DHT22;9213;50.858;3.964;2022-07-29T03:29:31;20.90;42.90
18177;DHT22;9213;50.858;3.964;2022-07-29T03:31:58;20.80;43.00
18177;DHT22;9213;50.858;3.964;2022-07-29T03:34:24;20.80;43.10
18177;DHT22;9213;50.858;3.964;2022-07-29T03:36:51;20.70;43.30
18177;DHT22;9213;50.858;3.964;2022-07-29T03:39:23;20.70;43.40
18177;DHT22;9213;50.858;3.964;2022-07-29T03:41:54;20.60;43.50
18177;DHT22;9213;50.858;3.964;2022-07-29T03:44:22;20.60;43.50
18177;DHT22;9213;50.858;3.964;2022-07-29T03:46:52;20.50;43.70
18177;DHT22;9213;50.858;3.964;2022-07-29T03:49:22;20.50;43.80
18177;DHT22;9213;50.858;3.964;2022-07-29T03:51:50;20.50;44.00
18177;DHT22;9213;50.858;3.964;2022-07-29T03:54:17;20.50;44.70
18177;DHT22;9213;50.858;3.964;2022-07-29T03:56:48;20.40;44.10
18177;DHT22;9213;50.858;3.964;2022-07-29T03:59:17;20.40;44.30
18177;DHT22;9213;50.858;3.964;2022-07-29T04:01:46;20.40;44.40
18177;DHT22;9213;50.858;3.964;2022-07-29T04:04:13;20.30;44.60
18177;DHT22;9213;50.858;3.964;2022-07-29T04:06:40;20.30;44.70
18177;DHT22;9213;50.858;3.964;2022-07-29T04:09:08;20.30;44.70
18177;DHT22;9213;50.858;3.964;2022-07-29T04:11:36;20.20;44.80
18177;DHT22;9213;50.858;3.964;2022-07-29T04:14:06;20.20;45.00
18177;DHT22;9213;50.858;3.964;2022-07-29T04:16:33;20.20;45.10
18177;DHT22;9213;50.858;3.964;2022-07-29T04:19:00;20.20;45.20
18177;DHT22;9213;50.858;3.964;2022-07-29T04:21:27;20.20;45.40
18177;DHT22;9213;50.858;3.964;2022-07-29T04:23:54;20.10;45.40
18177;DHT22;9213;50.858;3.964;2022-07-29T04:26:21;20.10;45.50
18177;DHT22;9213;50.858;3.964;2022-07-29T04:28:48;20.10;45.60
18177;DHT22;9213;50.858;3.964;2022-07-29T04:31:16;20.10;45.50
18177;DHT22;9213;50.858;3.964;2022-07-29T04:33:43;20.10;45.60
18177;DHT22;9213;50.858;3.964;2022-07-29T04:36:10;20.10;45.70
18177;DHT22;9213;50.858;3.964;2022-07-29T04:38:38;20.00;45.70
18177;DHT22;9213;50.858;3.964;2022-07-29T04:41:05;20.00;45.80
18177;DHT22;9213;50.858;3.964;2022-07-29T04:43:33;20.10;46.10
18177;DHT22;9213;50.858;3.964;2022-07-29T04:46:00;20.10;46.00
18177;DHT22;9213;50.858;3.964;2022-07-29T04:48:29;20.10;46.00
18177;DHT22;9213;50.858;3.964;2022-07-29T04:50:56;20.20;46.10
18177;DHT22;9213;50.858;3.964;2022-07-29T04:53:23;20.20;46.00
18177;DHT22;9213;50.858;3.964;2022-07-29T04:55:50;20.20;46.00
18177;DHT22;9213;50.858;3.964;2022-07-29T04:58:17;20.20;46.10
18177;DHT22;9213;50.858;3.964;2022-07-29T05:00:44;20.20;46.10
18177;DHT22;9213;50.858;3.964;2022-07-29T05:03:11;20.20;46.00
18177;DHT22;9213;50.858;3.964;2022-07-29T05:05:39;20.30;46.10
18177;DHT22;9213;50.858;3.964;2022-07-29T05:08:06;20.30;46.20
18177;DHT22;9213;50.858;3.964;2022-07-29T05:10:33;20.30;46.20
18177;DHT22;9213;50.858;3.964;2022-07-29T05:13:03;20.30;46.20
18177;DHT22;9213;50.858;3.964;2022-07-29T05:15:30;20.40;46.00
18177;DHT22;9213;50.858;3.964;2022-07-29T05:17:57;20.50;46.10
18177;DHT22;9213;50.858;3.964;2022-07-29T05:20:24;20.50;46.00
18177;DHT22;9213;50.858;3.964;2022-07-29T05:22:55;20.50;45.90
18177;DHT22;9213;50.858;3.964;2022-07-29T05:25:22;20.60;46.00
18177;DHT22;9213;50.858;3.964;2022-07-29T05:27:49;20.70;46.00
18177;DHT22;9213;50.858;3.964;2022-07-29T05:30:16;20.70;46.20
18177;DHT22;9213;50.858;3.964;2022-07-29T05:32:43;20.70;46.20
18177;DHT22;9213;50.858;3.964;2022-07-29T05:35:10;20.80;46.00
18177;DHT22;9213;50.858;3.964;2022-07-29T05:37:37;20.80;46.00
18177;DHT22;9213;50.858;3.964;2022-07-29T05:40:07;20.90;46.00
18177;DHT22;9213;50.858;3.964;2022-07-29T05:42:34;21.00;45.80
18177;DHT22;9213;50.858;3.964;2022-07-29T05:45:02;21.00;45.50
18177;DHT22;9213;50.858;3.964;2022-07-29T05:47:30;21.10;45.60
18177;DHT22;9213;50.858;3.964;2022-07-29T05:49:57;21.10;45.50
18177;DHT22;9213;50.858;3.964;2022-07-29T05:52:24;21.10;45.30
18177;DHT22;9213;50.858;3.964;2022-07-29T05:54:51;21.10;45.10
18177;DHT22;9213;50.858;3.964;2022-07-29T05:57:21;21.20;45.30
18177;DHT22;9213;50.858;3.964;2022-07-29T05:59:49;21.20;45.10
18177;DHT22;9213;50.858;3.964;2022-07-29T06:02:16;21.20;45.00
18177;DHT22;9213;50.858;3.964;2022-07-29T06:04:43;21.20;44.80
18177;DHT22;9213;50.858;3.964;2022-07-29T06:07:10;21.30;44.90
18177;DHT22;9213;50.858;3.964;2022-07-29T06:09:37;21.30;44.90
18177;DHT22;9213;50.858;3.964;2022-07-29T06:12:04;21.30;45.00
18177;DHT22;9213;50.858;3.964;2022-07-29T06:14:33;21.30;45.00
18177;DHT22;9213;50.858;3.964;2022-07-29T06:17:00;21.30;45.00
18177;DHT22;9213;50.858;3.964;2022-07-29T06:19:27;21.30;45.00
18177;DHT22;9213;50.858;3.964;2022-07-29T06:21:54;21.40;45.00
18177;DHT22;9213;50.858;3.964;2022-07-29T06:24:21;21.50;45.30
18177;DHT22;9213;50.858;3.964;2022-07-29T06:26:48;21.50;45.10
18177;DHT22;9213;50.858;3.964;2022-07-29T06:29:15;21.70;44.60
18177;DHT22;9213;50.858;3.964;2022-07-29T06:31:43;21.90;44.30
18177;DHT22;9213;50.858;3.964;2022-07-29T06:34:10;22.10;44.20
18177;DHT22;9213;50.858;3.964;2022-07-29T06:36:37;22.30;43.70
18177;DHT22;9213;50.858;3.964;2022-07-29T06:39:05;22.60;43.10
18177;DHT22;9213;50.858;3.964;2022-07-29T06:41:33;22.90;42.60
18177;DHT22;9213;50.858;3.964;2022-07-29T06:43:59;23.10;42.00
18177;DHT22;9213;50.858;3.964;2022-07-29T06:46:27;23.50;41.30
18177;DHT22;9213;50.858;3.964;2022-07-29T06:48:55;23.80;40.20
18177;DHT22;9213;50.858;3.964;2022-07-29T06:51:22;24.10;39.40
18177;DHT22;9213;50.858;3.964;2022-07-29T06:53:50;24.40;39.10
18177;DHT22;9213;50.858;3.964;2022-07-29T06:56:17;24.80;39.00
18177;DHT22;9213;50.858;3.964;2022-07-29T06:58:44;25.50;37.80
18177;DHT22;9213;50.858;3.964;2022-07-29T07:01:11;26.40;36.40
18177;DHT22;9213;50.858;3.964;2022-07-29T07:03:38;27.30;34.80
18177;DHT22;9213;50.858;3.964;2022-07-29T07:06:06;27.90;33.40
18177;DHT22;9213;50.858;3.964;2022-07-29T07:08:33;28.30;32.60
18177;DHT22;9213;50.858;3.964;2022-07-29T07:11:00;28.80;31.70
18177;DHT22;9213;50.858;3.964;2022-07-29T07:13:27;29.70;30.50
18177;DHT22;9213;50.858;3.964;2022-07-29T07:16:00;30.90;28.70
18177;DHT22;9213;50.858;3.964;2022-07-29T07:18:27;32.00;27.20
18177;DHT22;9213;50.858;3.964;2022-07-29T07:20:54;33.10;25.40
18177;DHT22;9213;50.858;3.964;2022-07-29T07:23:22;33.90;23.70
18177;DHT22;9213;50.858;3.964;2022-07-29T07:25:50;34.70;22.80
18177;DHT22;9213;50.858;3.964;2022-07-29T07:28:17;35.40;21.30
18177;DHT22;9213;50.858;3.964;2022-07-29T07:30:45;35.50;21.00
18177;DHT22;9213;50.858;3.964;2022-07-29T07:33:12;35.50;21.30
18177;DHT22;9213;50.858;3.964;2022-07-29T07:35:39;35.70;20.70
18177;DHT22;9213;50.858;3.964;2022-07-29T07:38:06;36.20;20.70
18177;DHT22;9213;50.858;3.964;2022-07-29T07:40:34;36.60;20.10
18177;DHT22;9213;50.858;3.964;2022-07-29T07:43:01;36.90;19.60
18177;DHT22;9213;50.858;3.964;2022-07-29T07:45:28;37.10;19.40
18177;DHT22;9213;50.858;3.964;2022-07-29T07:47:57;37.20;19.10
18177;DHT22;9213;50.858;3.964;2022-07-29T07:50:24;37.40;19.10
18177;DHT22;9213;50.858;3.964;2022-07-29T07:52:53;37.50;18.80
18177;DHT22;9213;50.858;3.964;2022-07-29T07:55:23;37.80;18.40
18177;DHT22;9213;50.858;3.964;2022-07-29T07:57:52;37.90;18.10
18177;DHT22;9213;50.858;3.964;2022-07-29T08:00:19;38.20;18.20
18177;DHT22;9213;50.858;3.964;2022-07-29T08:02:46;38.40;18.00
18177;DHT22;9213;50.858;3.964;2022-07-29T08:05:13;38.80;18.60
18177;DHT22;9213;50.858;3.964;2022-07-29T08:07:43;38.90;17.40
18177;DHT22;9213;50.858;3.964;2022-07-29T08:10:10;39.10;17.60
18177;DHT22;9213;50.858;3.964;2022-07-29T08:12:37;39.30;17.70
18177;DHT22;9213;50.858;3.964;2022-07-29T08:15:07;39.30;17.60
18177;DHT22;9213;50.858;3.964;2022-07-29T08:17:34;39.30;17.30
18177;DHT22;9213;50.858;3.964;2022-07-29T08:20:01;39.30;17.30
18177;DHT22;9213;50.858;3.964;2022-07-29T08:22:28;39.30;17.10
18177;DHT22;9213;50.858;3.964;2022-07-29T08:24:55;39.40;17.30
18177;DHT22;9213;50.858;3.964;2022-07-29T08:27:22;39.60;17.50
18177;DHT22;9213;50.858;3.964;2022-07-29T08:29:49;39.70;16.50
18177;DHT22;9213;50.858;3.964;2022-07-29T08:32:17;39.70;16.40
18177;DHT22;9213;50.858;3.964;2022-07-29T08:34:44;39.70;16.60
18177;DHT22;9213;50.858;3.964;2022-07-29T08:37:12;39.80;16.70
18177;DHT22;9213;50.858;3.964;2022-07-29T08:39:39;39.90;16.30
18177;DHT22;9213;50.858;3.964;2022-07-29T08:42:06;40.00;16.90
18177;DHT22;9213;50.858;3.964;2022-07-29T08:44:33;40.00;16.50
18177;DHT22;9213;50.858;3.964;2022-07-29T08:47:01;40.00;16.20
18177;DHT22;9213;50.858;3.964;2022-07-29T08:49:29;40.00;16.60
18177;DHT22;9213;50.858;3.964;2022-07-29T08:51:57;39.80;16.20
18177;DHT22;9213;50.858;3.964;2022-07-29T08:54:25;39.80;16.50
18177;DHT22;9213;50.858;3.964;2022-07-29T08:56:52;39.80;16.60
18177;DHT22;9213;50.858;3.964;2022-07-29T08:59:20;39.80;16.10
18177;DHT22;9213;50.858;3.964;2022-07-29T09:01:48;39.80;16.20
18177;DHT22;9213;50.858;3.964;2022-07-29T09:04:17;39.80;16.30
18177;DHT22;9213;50.858;3.964;2022-07-29T09:06:49;39.80;15.90
18177;DHT22;9213;50.858;3.964;2022-07-29T09:09:16;39.70;16.10
18177;DHT22;9213;50.858;3.964;2022-07-29T09:11:44;39.60;16.10
18177;DHT22;9213;50.858;3.964;2022-07-29T09:14:12;39.50;16.10
18177;DHT22;9213;50.858;3.964;2022-07-29T09:16:51;39.30;16.50
18177;DHT22;9213;50.858;3.964;2022-07-29T09:19:22;39.20;16.80
18177;DHT22;9213;50.858;3.964;2022-07-29T09:21:50;39.00;16.50
18177;DHT22;9213;50.858;3.964;2022-07-29T09:24:36;38.80;16.70
18177;DHT22;9213;50.858;3.964;2022-07-29T09:27:09;38.60;16.80
18177;DHT22;9213;50.858;3.964;2022-07-29T09:29:36;38.30;16.70
18177;DHT22;9213;50.858;3.964;2022-07-29T09:32:08;38.10;17.40
18177;DHT22;9213;50.858;3.964;2022-07-29T09:34:37;38.00;17.40
18177;DHT22;9213;50.858;3.964;2022-07-29T09:37:05;37.80;17.10
18177;DHT22;9213;50.858;3.964;2022-07-29T09:39:33;37.70;17.40
18177;DHT22;9213;50.858;3.964;2022-07-29T09:42:04;37.70;17.30
18177;DHT22;9213;50.858;3.964;2022-07-29T09:44:45;37.60;17.50
18177;DHT22;9213;50.858;3.964;2022-07-29T09:47:14;37.70;17.60
18177;DHT22;9213;50.858;3.964;2022-07-29T09:49:53;37.50;17.40
18177;DHT22;9213;50.858;3.964;2022-07-29T09:52:21;37.50;17.80
18177;DHT22;9213;50.858;3.964;2022-07-29T09:54:48;37.30;17.60
18177;DHT22;9213;50.858;3.964;2022-07-29T09:57:24;37.20;18.20
18177;DHT22;9213;50.858;3.964;2022-07-29T09:59:59;37.00;17.50
18177;DHT22;9213;50.858;3.964;2022-07-29T10:02:30;36.80;17.10
18177;DHT22;9213;50.858;3.964;2022-07-29T10:04:58;36.50;17.60
18177;DHT22;9213;50.858;3.964;2022-07-29T10:07:43;36.40;18.20
18177;DHT22;9213;50.858;3.964;2022-07-29T10:10:10;36.50;18.80
18177;DHT22;9213;50.858;3.964;2022-07-29T10:12:50;36.50;17.90
18177;DHT22;9213;50.858;3.964;2022-07-29T10:15:18;36.60;18.30
18177;DHT22;9213;50.858;3.964;2022-07-29T10:17:46;36.40;17.90
18177;DHT22;9213;50.858;3.964;2022-07-29T10:20:13;36.30;18.10
18177;DHT22;9213;50.858;3.964;2022-07-29T10:22:42;36.20;18.30
18177;DHT22;9213;50.858;3.964;2022-07-29T10:25:09;36.10;18.40
18177;DHT22;9213;50.858;3.964;2022-07-29T10:27:37;36.10;18.80
18177;DHT22;9213;50.858;3.964;2022-07-29T10:30:05;36.10;18.90
18177;DHT22;9213;50.858;3.964;2022-07-29T10:32:48;36.10;18.70
18177;DHT22;9213;50.858;3.964;2022-07-29T10:35:45;36.10;18.70
18177;DHT22;9213;50.858;3.964;2022-07-29T10:38:44;36.10;18.50
18177;DHT22;9213;50.858;3.964;2022-07-29T10:41:33;36.20;18.20
18177;DHT22;9213;50.858;3.964;2022-07-29T10:44:13;36.20;18.30
18177;DHT22;9213;50.858;3.964;2022-07-29T10:46:41;36.00;18.80
18177;DHT22;9213;50.858;3.964;2022-07-29T10:49:10;36.00;18.30
18177;DHT22;9213;50.858;3.964;2022-07-29T10:52:02;36.10;18.60
18177;DHT22;9213;50.858;3.964;2022-07-29T10:54:45;36.40;18.70
18177;DHT22;9213;50.858;3.964;2022-07-29T10:57:24;36.40;17.90
18177;DHT22;9213;50.858;3.964;2022-07-29T11:00:30;36.40;18.20
18177;DHT22;9213;50.858;3.964;2022-07-29T11:02:58;36.50;18.30
18177;DHT22;9213;50.858;3.964;2022-07-29T11:05:26;36.50;18.20
18177;DHT22;9213;50.858;3.964;2022-07-29T11:08:20;36.60;18.40
18177;DHT22;9213;50.858;3.964;2022-07-29T11:10:51;36.70;18.20
18177;DHT22;9213;50.858;3.964;2022-07-29T11:13:50;36.60;18.00
18177;DHT22;9213;50.858;3.964;2022-07-29T11:16:18;36.70;17.70
18177;DHT22;9213;50.858;3.964;2022-07-29T11:19:19;36.50;18.30
18177;DHT22;9213;50.858;3.964;2022-07-29T11:21:47;36.70;18.20
18177;DHT22;9213;50.858;3.964;2022-07-29T11:24:17;36.50;18.30
18177;DHT22;9213;50.858;3.964;2022-07-29T11:26:45;36.40;18.00
18177;DHT22;9213;50.858;3.964;2022-07-29T11:29:32;36.20;17.80
18177;DHT22;9213;50.858;3.964;2022-07-29T11:32:09;36.10;18.30
18177;DHT22;9213;50.858;3.964;2022-07-29T11:34:36;36.00;18.60
18177;DHT22;9213;50.858;3.964;2022-07-29T11:37:22;35.80;18.50
18177;DHT22;9213;50.858;3.964;2022-07-29T11:40:11;35.70;19.00
18177;DHT22;9213;50.858;3.964;2022-07-29T11:42:42;35.70;19.30
18177;DHT22;9213;50.858;3.964;2022-07-29T11:45:10;35.50;19.80
18177;DHT22;9213;50.858;3.964;2022-07-29T11:47:40;35.40;19.00
18177;DHT22;9213;50.858;3.964;2022-07-29T11:50:09;35.40;19.30
18177;DHT22;9213;50.858;3.964;2022-07-29T11:52:37;35.40;18.80
18177;DHT22;9213;50.858;3.964;2022-07-29T11:55:09;35.40;18.80
18177;DHT22;9213;50.858;3.964;2022-07-29T11:57:44;35.50;18.90
18177;DHT22;9213;50.858;3.964;2022-07-29T12:00:22;35.50;19.50
18177;DHT22;9213;50.858;3.964;2022-07-29T12:02:49;35.70;19.50
18177;DHT22;9213;50.858;3.964;2022-07-29T12:05:17;35.70;19.20
18177;DHT22;9213;50.858;3.964;2022-07-29T12:07:44;35.70;18.60
18177;DHT22;9213;50.858;3.964;2022-07-29T12:10:11;35.70;18.70
18177;DHT22;9213;50.858;3.964;2022-07-29T12:12:38;35.70;18.60
18177;DHT22;9213;50.858;3.964;2022-07-29T12:15:14;35.80;18.60
18177;DHT22;9213;50.858;3.964;2022-07-29T12:17:43;36.10;18.50
18177;DHT22;9213;50.858;3.964;2022-07-29T12:20:10;36.10;18.50
18177;DHT22;9213;50.858;3.964;2022-07-29T12:22:40;36.20;18.30
18177;DHT22;9213;50.858;3.964;2022-07-29T12:25:10;36.30;18.30
18177;DHT22;9213;50.858;3.964;2022-07-29T12:27:40;36.40;18.30
18177;DHT22;9213;50.858;3.964;2022-07-29T12:30:10;36.60;17.60
18177;DHT22;9213;50.858;3.964;2022-07-29T12:32:43;36.80;17.70
18177;DHT22;9213;50.858;3.964;2022-07-29T12:35:12;37.10;17.70
18177;DHT22;9213;50.858;3.964;2022-07-29T12:37:40;37.20;17.50
18177;DHT22;9213;50.858;3.964;2022-07-29T12:40:09;37.20;17.50
18177;DHT22;9213;50.858;3.964;2022-07-29T12:42:37;37.00;17.70
18177;DHT22;9213;50.858;3.964;2022-07-29T12:45:05;36.80;17.30
18177;DHT22;9213;50.858;3.964;2022-07-29T12:47:33;36.50;17.40
18177;DHT22;9213;50.858;3.964;2022-07-29T12:50:12;36.30;18.00
18177;DHT22;9213;50.858;3.964;2022-07-29T12:52:44;36.40;18.30
18177;DHT22;9213;50.858;3.964;2022-07-29T12:55:11;36.40;18.20
18177;DHT22;9213;50.858;3.964;2022-07-29T12:57:45;36.40;18.10
18177;DHT22;9213;50.858;3.964;2022-07-29T13:00:14;36.50;17.50
18177;DHT22;9213;50.858;3.964;2022-07-29T13:02:42;36.40;17.90
18177;DHT22;9213;50.858;3.964;2022-07-29T13:05:11;36.40;17.90
18177;DHT22;9213;50.858;3.964;2022-07-29T13:07:38;36.30;18.10
18177;DHT22;9213;50.858;3.964;2022-07-29T13:10:13;36.20;17.70
18177;DHT22;9213;50.858;3.964;2022-07-29T13:13:02;36.20;17.90
18177;DHT22;9213;50.858;3.964;2022-07-29T13:15:30;36.20;18.20
18177;DHT22;9213;50.858;3.964;2022-07-29T13:17:57;36.10;18.00
18177;DHT22;9213;50.858;3.964;2022-07-29T13:20:27;36.20;18.10
18177;DHT22;9213;50.858;3.964;2022-07-29T13:22:55;36.20;18.60
18177;DHT22;9213;50.858;3.964;2022-07-29T13:25:26;36.30;18.40
18177;DHT22;9213;50.858;3.964;2022-07-29T13:27:53;36.40;18.00
18177;DHT22;9213;50.858;3.964;2022-07-29T13:30:22;36.40;17.70
18177;DHT22;9213;50.858;3.964;2022-07-29T13:32:49;36.50;18.10
18177;DHT22;9213;50.858;3.964;2022-07-29T13:35:17;36.50;17.40
18177;DHT22;9213;50.858;3.964;2022-07-29T13:37:46;36.40;17.40
18177;DHT22;9213;50.858;3.964;2022-07-29T13:40:13;36.40;17.70
18177;DHT22;9213;50.858;3.964;2022-07-29T13:42:41;36.20;17.60
18177;DHT22;9213;50.858;3.964;2022-07-29T13:45:09;36.00;17.80
18177;DHT22;9213;50.858;3.964;2022-07-29T13:47:37;35.80;18.00
18177;DHT22;9213;50.858;3.964;2022-07-29T13:50:05;35.60;18.20
18177;DHT22;9213;50.858;3.964;2022-07-29T13:52:33;35.40;18.30
18177;DHT22;9213;50.858;3.964;2022-07-29T13:55:02;35.20;18.60
18177;DHT22;9213;50.858;3.964;2022-07-29T13:57:30;35.10;18.60
18177;DHT22;9213;50.858;3.964;2022-07-29T13:59:57;34.90;18.60
18177;DHT22;9213;50.858;3.964;2022-07-29T14:02:24;34.90;18.80
18177;DHT22;9213;50.858;3.964;2022-07-29T14:04:51;34.90;19.00
18177;DHT22;9213;50.858;3.964;2022-07-29T14:07:18;34.90;19.00
18177;DHT22;9213;50.858;3.964;2022-07-29T14:09:45;35.00;19.20
18177;DHT22;9213;50.858;3.964;2022-07-29T14:12:13;35.10;19.20
18177;DHT22;9213;50.858;3.964;2022-07-29T14:14:40;35.10;18.90
18177;DHT22;9213;50.858;3.964;2022-07-29T14:17:07;35.20;19.00
18177;DHT22;9213;50.858;3.964;2022-07-29T14:19:34;35.30;18.60
18177;DHT22;9213;50.858;3.964;2022-07-29T14:22:03;35.40;18.50
18177;DHT22;9213;50.858;3.964;2022-07-29T14:24:31;35.40;18.10
18177;DHT22;9213;50.858;3.964;2022-07-29T14:26:58;35.40;17.80
18177;DHT22;9213;50.858;3.964;2022-07-29T14:29:27;35.40;17.90
18177;DHT22;9213;50.858;3.964;2022-07-29T14:31:54;35.40;18.20
18177;DHT22;9213;50.858;3.964;2022-07-29T14:34:20;35.50;18.40
18177;DHT22;9213;50.858;3.964;2022-07-29T14:36:47;35.50;18.00
18177;DHT22;9213;50.858;3.964;2022-07-29T14:39:14;35.50;17.80
18177;DHT22;9213;50.858;3.964;2022-07-29T14:41:42;35.50;17.80
18177;DHT22;9213;50.858;3.964;2022-07-29T14:44:09;35.40;18.00
18177;DHT22;9213;50.858;3.964;2022-07-29T14:46:37;35.30;18.10
18177;DHT22;9213;50.858;3.964;2022-07-29T14:49:04;35.20;18.20
18177;DHT22;9213;50.858;3.964;2022-07-29T14:51:32;35.00;18.50
18177;DHT22;9213;50.858;3.964;2022-07-29T14:53:59;34.80;18.20
18177;DHT22;9213;50.858;3.964;2022-07-29T14:56:26;34.60;18.20
18177;DHT22;9213;50.858;3.964;2022-07-29T14:58:55;34.50;18.70
18177;DHT22;9213;50.858;3.964;2022-07-29T15:01:22;34.40;18.60
18177;DHT22;9213;50.858;3.964;2022-07-29T15:03:51;34.40;19.20
18177;DHT22;9213;50.858;3.964;2022-07-29T15:06:18;34.40;19.20
18177;DHT22;9213;50.858;3.964;2022-07-29T15:08:45;34.40;19.00
18177;DHT22;9213;50.858;3.964;2022-07-29T15:11:12;34.40;19.20
18177;DHT22;9213;50.858;3.964;2022-07-29T15:13:39;34.30;19.20
18177;DHT22;9213;50.858;3.964;2022-07-29T15:16:05;34.20;19.20
18177;DHT22;9213;50.858;3.964;2022-07-29T15:18:33;34.10;19.10
18177;DHT22;9213;50.858;3.964;2022-07-29T15:21:01;34.00;19.40
18177;DHT22;9213;50.858;3.964;2022-07-29T15:23:28;33.90;19.40
18177;DHT22;9213;50.858;3.964;2022-07-29T15:25:55;33.90;19.50
18177;DHT22;9213;50.858;3.964;2022-07-29T15:28:22;33.90;19.80
18177;DHT22;9213;50.858;3.964;2022-07-29T15:30:49;33.80;19.90
18177;DHT22;9213;50.858;3.964;2022-07-29T15:33:16;33.80;19.90
18177;DHT22;9213;50.858;3.964;2022-07-29T15:35:43;33.80;20.00
18177;DHT22;9213;50.858;3.964;2022-07-29T15:38:11;33.80;20.00
18177;DHT22;9213;50.858;3.964;2022-07-29T15:40:38;33.80;20.90
18177;DHT22;9213;50.858;3.964;2022-07-29T15:43:06;33.80;20.80
18177;DHT22;9213;50.858;3.964;2022-07-29T15:45:37;33.80;19.90
18177;DHT22;9213;50.858;3.964;2022-07-29T15:48:05;33.80;20.90
18177;DHT22;9213;50.858;3.964;2022-07-29T15:50:33;33.80;20.50
18177;DHT22;9213;50.858;3.964;2022-07-29T15:53:00;33.70;20.90
18177;DHT22;9213;50.858;3.964;2022-07-29T15:55:28;33.70;21.00
18177;DHT22;9213;50.858;3.964;2022-07-29T15:57:55;33.60;20.70
18177;DHT22;9213;50.858;3.964;2022-07-29T16:00:22;33.40;20.70